Randle, WA (98377)

10:49 AM PDT on August 31, 2015 (GMT -0700)
Lost Creek | | Change Station
CLOSE
Current Station
Personal Weather Station
Location: Glenoma, WA
Elevation: 1119 ft
Nearby Weather Stations

Elev 1119 ft 46.54 °N, 122.06 °W | Updated 9 seconds ago

Mostly Cloudy
Mostly Cloudy
58.8 °F
Feels Like 58.8 °F
N
0.0
Wind Variable Wind from WSW
Gusts 2.5 mph

Today
High -- | Low -- °F
--% Chance of Precip.
Yesterday
High -- | Low -- °F
Precip. -- in
6:26 AM 7:48 PM
Waning Gibbous, 94% visible
Pressure 30.01 in
Visibility 10.0 miles
Clouds Mostly Cloudy 3100 ft
Overcast 4100 ft
Dew Point 57 °F
Humidity 94%
Rainfall 0.00 in
Snow Depth Not available.
UV out of 12
Pollen .50 out of 12
Air Quality Not available.
Flu Activity Not available.
METAR KPLU 311735Z AUTO 20007G17KT 170V250 10SM BKN031 OVC041 18/12 A3001 RMK AO2
Pressure 30.01 in
Visibility 10.0 miles
Clouds Mostly Cloudy 3100 ft
Overcast 4100 ft
Dew Point 57 °F
Humidity 94%
Rainfall 0.00 in
Snow Depth Not available.
UV out of 12
Pollen .50 out of 12
Air Quality Not available.
Flu Activity Not available.
METAR KPLU 311735Z AUTO 20007G17KT 170V250 10SM BKN031 OVC041 18/12 A3001 RMK AO2

10-Day Weather Forecast

×

Almanac

Astronomy

Aug. 31, 2015 Rise Set
Actual Time
Civil Twilight
Nautical Twilight
Astronomical Twilight
Moon
Length of Visible Light
Length of Day
Tomorrow will be .
, % of the Moon is Illuminated

Today's Extremes

State Highs State Lows

Community

WunderPhotos

Upload Photos

1,851,328 photos uploaded!

WunderBlogs® & News

Nearby

Air Quality

  Air Quality AQ Index Pollutant
Not available.

Snow Depth

Station Depth Elevation

Earthquake Activity

City Distance Mag. Time & Date
Minimum magnitude displayed is 2.5.

Coastal Water Temperatures

Place Temperature

Stations

Nearby Weather Stations

Station Location Temp. Windchill Dew Point Humidity Wind Precip. Elev Updated Type